createdAt,value
2022-09-10T00:01:37.033Z,71.85
2022-09-10T00:04:11.831Z,71.80
2022-09-10T00:06:40.871Z,71.82
2022-09-10T00:09:10.348Z,71.91
2022-09-10T00:11:41.166Z,71.78
2022-09-10T00:14:17.409Z,71.98
2022-09-10T00:16:45.710Z,72.10
2022-09-10T00:19:15.045Z,72.18
2022-09-10T00:21:44.573Z,72.14
2022-09-10T00:24:13.604Z,72.10
2022-09-10T00:26:42.031Z,72.03
2022-09-10T00:29:12.589Z,72.07
2022-09-10T00:31:40.846Z,72.21
2022-09-10T00:34:09.471Z,72.21
2022-09-10T00:36:40.486Z,72.19
2022-09-10T00:39:12.291Z,72.21
2022-09-10T00:41:43.159Z,72.17
2022-09-10T00:44:42.197Z,72.17
2022-09-10T00:47:29.273Z,72.29
2022-09-10T00:50:16.219Z,72.35
2022-09-10T00:52:47.507Z,72.33
2022-09-10T00:55:17.354Z,72.49
2022-09-10T00:57:49.321Z,72.52
2022-09-10T01:00:17.835Z,72.58
2022-09-10T01:02:45.893Z,72.58
2022-09-10T01:05:15.454Z,72.53
2022-09-10T01:07:45.396Z,72.45
2022-09-10T01:10:29.014Z,72.48
2022-09-10T01:13:29.207Z,72.47
2022-09-10T01:16:34.978Z,72.67
2022-09-10T01:19:28.878Z,72.60
2022-09-10T01:22:32.040Z,72.52
2022-09-10T01:25:10.763Z,72.57
2022-09-10T01:27:41.374Z,72.53
2022-09-10T01:30:09.647Z,72.56
2022-09-10T01:32:55.932Z,72.48
2022-09-10T01:35:49.648Z,72.53
2022-09-10T01:38:23.685Z,72.70
2022-09-10T01:40:54.418Z,72.58
2022-09-10T01:43:23.124Z,72.52
2022-09-10T01:45:56.939Z,72.56
2022-09-10T01:48:34.666Z,72.59
2022-09-10T01:51:04.540Z,72.71
2022-09-10T01:54:00.235Z,72.59
2022-09-10T01:56:50.960Z,72.54
2022-09-10T01:59:43.797Z,72.60
2022-09-10T02:02:25.279Z,72.49
2022-09-10T02:04:55.106Z,72.67
2022-09-10T02:07:26.978Z,72.57
2022-09-10T02:09:55.843Z,72.63
2022-09-10T02:12:24.765Z,72.65
2022-09-10T02:14:55.459Z,72.70
2022-09-10T02:17:28.607Z,72.65
2022-09-10T02:19:58.510Z,72.77
2022-09-10T02:22:26.718Z,72.89
2022-09-10T02:24:54.784Z,72.88
2022-09-10T02:27:23.811Z,72.79
2022-09-10T02:29:52.211Z,72.94
2022-09-10T02:32:20.390Z,72.94
2022-09-10T02:34:48.576Z,72.85
2022-09-10T02:37:17.047Z,72.88
2022-09-10T02:39:46.679Z,72.91
2022-09-10T02:42:17.087Z,72.82
2022-09-10T02:44:45.279Z,72.83
2022-09-10T02:47:13.808Z,72.97
2022-09-10T02:49:41.935Z,72.95
2022-09-10T02:52:10.068Z,73.13
2022-09-10T02:54:38.631Z,72.80
2022-09-10T02:57:07.133Z,72.85
2022-09-10T02:59:35.673Z,72.83
2022-09-10T03:02:03.949Z,72.92
2022-09-10T03:04:32.072Z,72.96
2022-09-10T03:07:00.187Z,72.95
2022-09-10T03:09:29.050Z,72.68
2022-09-10T03:11:57.074Z,72.82
2022-09-10T03:14:26.185Z,72.95
2022-09-10T03:16:55.181Z,72.91
2022-09-10T03:19:24.335Z,72.96
2022-09-10T03:21:53.087Z,72.95
2022-09-10T03:24:21.621Z,73.14
2022-09-10T03:26:49.791Z,73.04
2022-09-10T03:29:17.895Z,73.05
2022-09-10T03:31:46.852Z,73.13
2022-09-10T03:34:14.951Z,73.06
2022-09-10T03:36:43.044Z,73.04
2022-09-10T03:39:11.180Z,73.28
2022-09-10T03:41:39.311Z,73.04
2022-09-10T03:44:07.381Z,73.11
2022-09-10T03:46:35.467Z,73.10
2022-09-10T03:49:05.092Z,73.18
2022-09-10T03:51:34.202Z,73.04
2022-09-10T03:54:02.670Z,73.06
2022-09-10T03:56:31.754Z,73.20
2022-09-10T03:59:00.462Z,73.08
2022-09-10T04:01:28.776Z,73.06
2022-09-10T04:03:57.635Z,73.05
2022-09-10T04:06:25.839Z,73.00
2022-09-10T04:08:54.128Z,72.92
2022-09-10T04:11:27.691Z,73.09
2022-09-10T04:13:56.902Z,72.91
2022-09-10T04:16:25.443Z,72.93
2022-09-10T04:18:54.435Z,72.97
2022-09-10T04:21:23.283Z,72.82
2022-09-10T04:23:56.219Z,72.85
2022-09-10T04:26:24.285Z,72.89
2022-09-10T04:28:53.856Z,72.94
2022-09-10T04:31:22.291Z,73.00
2022-09-10T04:33:50.855Z,72.96
2022-09-10T04:36:19.393Z,72.96
2022-09-10T04:38:47.458Z,72.93
2022-09-10T04:41:15.852Z,72.88
2022-09-10T04:43:44.167Z,72.88
2022-09-10T04:46:12.552Z,72.97
2022-09-10T04:48:40.881Z,73.05
2022-09-10T04:51:17.482Z,72.94
2022-09-10T04:53:46.599Z,73.04
2022-09-10T04:56:15.166Z,72.86
2022-09-10T04:58:44.465Z,72.89
2022-09-10T05:01:13.360Z,72.88
2022-09-10T05:03:41.786Z,72.93
2022-09-10T05:06:09.830Z,72.94
2022-09-10T05:08:38.005Z,72.90
2022-09-10T05:11:06.511Z,73.01
2022-09-10T05:13:34.728Z,72.89
2022-09-10T05:16:02.953Z,73.04
2022-09-10T05:18:31.055Z,73.06
2022-09-10T05:20:59.198Z,72.92
2022-09-10T05:23:27.440Z,72.90
2022-09-10T05:25:56.845Z,72.84
2022-09-10T05:28:25.139Z,72.91
2022-09-10T05:30:53.328Z,72.95
2022-09-10T05:33:22.171Z,72.88
2022-09-10T05:35:53.774Z,72.94
2022-09-10T05:38:24.103Z,72.86
2022-09-10T05:40:52.343Z,73.09
2022-09-10T05:43:21.179Z,72.94
2022-09-10T05:45:52.001Z,72.96
2022-09-10T05:48:20.896Z,73.11
2022-09-10T05:50:49.163Z,72.91
2022-09-10T05:53:17.466Z,72.98
2022-09-10T05:55:46.220Z,72.92
2022-09-10T05:58:14.427Z,72.94
2022-09-10T06:00:45.618Z,73.00
2022-09-10T06:03:13.801Z,73.18
2022-09-10T06:05:41.953Z,73.10
2022-09-10T06:08:10.450Z,73.26
2022-09-10T06:10:38.707Z,73.19
2022-09-10T06:13:06.896Z,73.12
2022-09-10T06:15:35.972Z,73.02
2022-09-10T06:18:04.592Z,73.09
2022-09-10T06:20:32.639Z,72.97
2022-09-10T06:23:00.800Z,72.97
2022-09-10T06:25:28.973Z,72.97
2022-09-10T06:27:57.030Z,72.82
2022-09-10T06:30:25.270Z,72.92
2022-09-10T06:32:53.473Z,72.86
2022-09-10T06:35:21.739Z,72.80
2022-09-10T06:37:50.425Z,72.86
2022-09-10T06:40:18.803Z,72.79
2022-09-10T06:42:46.879Z,72.65
2022-09-10T06:45:15.093Z,72.75
2022-09-10T06:48:36.693Z,72.76
2022-09-10T06:50:32.186Z,72.66
2022-09-10T06:53:00.342Z,72.60
2022-09-10T06:55:28.487Z,72.70
2022-09-10T06:58:00.038Z,72.67
2022-09-10T07:00:28.598Z,72.57
2022-09-10T07:02:56.686Z,72.54
2022-09-10T07:05:24.815Z,72.65
2022-09-10T07:07:52.989Z,72.50
2022-09-10T07:10:21.080Z,72.68
2022-09-10T07:12:49.176Z,72.44
2022-09-10T07:15:17.384Z,72.45
2022-09-10T07:17:45.554Z,72.40
2022-09-10T07:20:14.997Z,72.16
2022-09-10T07:22:43.910Z,72.32
2022-09-10T07:25:13.282Z,72.24
2022-09-10T07:27:41.595Z,72.09
2022-09-10T07:30:10.252Z,72.19
2022-09-10T07:32:38.843Z,72.09
2022-09-10T07:35:07.991Z,72.15
2022-09-10T07:37:36.262Z,72.05
2022-09-10T07:40:04.886Z,71.65
2022-09-10T07:42:33.040Z,71.68
2022-09-10T07:45:01.366Z,71.43
2022-09-10T07:47:29.454Z,71.37
2022-09-10T07:49:57.764Z,71.35
2022-09-10T07:52:26.079Z,71.15
2022-09-10T07:54:54.311Z,71.27
2022-09-10T07:57:22.509Z,71.08
2022-09-10T07:59:53.870Z,71.02
2022-09-10T08:02:22.688Z,70.90
2022-09-10T08:04:50.752Z,70.65
2022-09-10T08:07:43.379Z,70.51
2022-09-10T08:10:12.161Z,70.50
2022-09-10T08:12:40.953Z,70.14
2022-09-10T08:15:10.270Z,70.12
2022-09-10T08:17:38.454Z,70.29
2022-09-10T08:20:08.882Z,70.24
2022-09-10T08:22:37.456Z,69.85
2022-09-10T08:25:06.060Z,69.86
2022-09-10T08:27:35.315Z,69.60
2022-09-10T08:30:04.113Z,69.45
2022-09-10T08:32:35.196Z,69.25
2022-09-10T08:35:05.256Z,69.17
2022-09-10T08:37:33.955Z,69.18
2022-09-10T08:40:03.392Z,69.02
2022-09-10T08:42:40.872Z,68.80
2022-09-10T08:45:21.118Z,68.74
2022-09-10T08:48:03.781Z,68.70
2022-09-10T08:50:54.636Z,68.36
2022-09-10T08:53:26.153Z,68.45
2022-09-10T08:55:59.570Z,68.49
2022-09-10T08:58:44.113Z,68.40
2022-09-10T09:01:25.749Z,68.35
2022-09-10T09:03:57.487Z,68.17
2022-09-10T09:06:30.382Z,67.93
2022-09-10T09:09:01.652Z,67.70
2022-09-10T09:11:59.264Z,67.67
2022-09-10T09:14:53.205Z,67.48
2022-09-10T09:17:36.815Z,67.62
2022-09-10T09:20:26.689Z,67.41
2022-09-10T09:23:19.708Z,67.05
2022-09-10T09:26:08.773Z,66.89
2022-09-10T09:28:48.502Z,66.65
2022-09-10T09:31:31.403Z,66.47
2022-09-10T09:34:12.147Z,66.36
2022-09-10T09:36:47.087Z,66.19
2022-09-10T09:39:39.222Z,66.16
2022-09-10T09:42:19.655Z,66.14
2022-09-10T09:45:17.746Z,66.08
2022-09-10T09:47:47.173Z,65.56
2022-09-10T09:50:15.745Z,65.23
2022-09-10T09:52:45.268Z,65.26
2022-09-10T09:55:28.781Z,65.37
2022-09-10T09:58:21.438Z,65.21
2022-09-10T10:00:54.047Z,65.23
2022-09-10T10:03:29.089Z,65.20
2022-09-10T10:06:08.396Z,64.73
2022-09-10T10:08:46.279Z,64.64
2022-09-10T10:11:18.408Z,64.25
2022-09-10T10:13:47.557Z,64.84
2022-09-10T10:16:36.240Z,65.21
2022-09-10T10:19:40.333Z,65.38
2022-09-10T10:22:14.536Z,65.44
2022-09-10T10:24:43.582Z,65.02
2022-09-10T10:27:20.677Z,64.93
2022-09-10T10:29:55.479Z,65.02
2022-09-10T10:32:32.666Z,64.64
2022-09-10T10:35:19.780Z,64.79
2022-09-10T10:38:05.989Z,64.47
2022-09-10T10:40:38.257Z,64.54
2022-09-10T10:43:06.464Z,64.18
2022-09-10T10:45:43.758Z,63.95
2022-09-10T10:48:29.411Z,64.31
2022-09-10T10:50:57.430Z,63.92
2022-09-10T10:53:54.757Z,63.52
2022-09-10T10:56:32.618Z,63.14
2022-09-10T10:59:33.971Z,62.94
2022-09-10T11:02:44.171Z,62.80
2022-09-10T11:05:48.226Z,62.47
2022-09-10T11:08:27.218Z,62.50
2022-09-10T11:11:06.147Z,62.47
2022-09-10T11:13:43.052Z,62.10
2022-09-10T11:16:24.146Z,61.90
2022-09-10T11:19:16.200Z,61.72
2022-09-10T11:22:18.791Z,61.17
2022-09-10T11:24:58.806Z,61.56
2022-09-10T11:27:40.612Z,61.27
2022-09-10T11:30:17.147Z,61.30
2022-09-10T11:33:03.530Z,61.78
2022-09-10T11:35:39.948Z,61.45
2022-09-10T11:38:32.581Z,61.48
2022-09-10T11:41:07.289Z,60.87
2022-09-10T11:43:54.625Z,60.35
2022-09-10T11:46:34.603Z,58.99
2022-09-10T11:49:20.377Z,58.91
2022-09-10T11:51:49.929Z,59.53
2022-09-10T11:54:34.625Z,59.81
2022-09-10T11:57:27.478Z,59.95
2022-09-10T12:00:11.872Z,59.78
2022-09-10T12:03:21.308Z,59.81
2022-09-10T12:05:55.279Z,60.28
2022-09-10T12:08:48.706Z,60.27
2022-09-10T12:11:28.519Z,60.19
2022-09-10T12:13:57.619Z,60.78
2022-09-10T12:16:39.415Z,60.86
2022-09-10T12:19:22.941Z,61.03
2022-09-10T12:21:58.018Z,61.10
2022-09-10T12:24:33.534Z,61.59
2022-09-10T12:27:05.069Z,61.78
2022-09-10T12:29:43.282Z,61.70
2022-09-10T12:32:20.730Z,61.56
2022-09-10T12:35:08.812Z,61.78
2022-09-10T13:11:23.918Z,62.65
2022-09-10T13:14:03.802Z,62.73
2022-09-10T13:16:32.021Z,62.56
2022-09-10T13:19:23.146Z,62.67
2022-09-10T13:21:54.911Z,62.61
2022-09-10T13:24:35.817Z,62.84
2022-09-10T13:27:13.076Z,62.89
2022-09-10T13:29:45.070Z,62.66
2022-09-10T13:32:41.273Z,62.64
2022-09-10T13:35:27.120Z,62.78
2022-09-10T13:38:36.610Z,62.51
2022-09-10T13:41:23.286Z,62.35
2022-09-10T13:44:08.669Z,62.34
2022-09-10T13:46:50.764Z,62.25
2022-09-10T13:49:36.896Z,62.25
2022-09-10T13:52:11.062Z,62.43
2022-09-10T13:54:43.636Z,62.33
2022-09-10T13:57:19.452Z,62.36
2022-09-10T13:59:50.525Z,62.42
2022-09-10T14:02:19.880Z,62.40
2022-09-10T14:04:47.976Z,62.26
2022-09-10T14:07:29.209Z,62.36
2022-09-10T14:10:01.649Z,62.22
2022-09-10T14:12:35.002Z,62.17
2022-09-10T14:15:06.508Z,62.28
2022-09-10T14:17:41.333Z,62.65
2022-09-10T14:20:29.521Z,62.87
2022-09-10T14:23:00.831Z,63.19
2022-09-10T14:25:31.286Z,63.09
2022-09-10T14:28:27.717Z,63.39
2022-09-10T14:31:34.086Z,63.38
2022-09-10T14:34:29.915Z,63.49
2022-09-10T14:37:02.082Z,63.64
2022-09-10T14:39:30.369Z,63.72
2022-09-10T14:42:24.305Z,63.76
2022-09-10T14:44:52.810Z,63.80
2022-09-10T14:47:29.889Z,63.98
2022-09-10T14:50:34.424Z,64.14
2022-09-10T14:53:03.484Z,64.28
2022-09-10T14:55:32.549Z,64.20
2022-09-10T14:58:00.744Z,64.24
2022-09-10T15:00:29.990Z,64.28
2022-09-10T15:02:58.595Z,64.17
2022-09-10T15:05:27.953Z,64.20
2022-09-10T15:07:57.050Z,64.42
2022-09-10T15:10:25.237Z,64.62
2022-09-10T15:12:55.618Z,64.48
2022-09-10T15:15:25.052Z,64.55
2022-09-10T15:17:53.710Z,64.63
2022-09-10T15:20:27.154Z,64.70
2022-09-10T15:22:55.998Z,64.76
2022-09-10T15:25:48.656Z,64.90
2022-09-10T15:28:16.736Z,65.01
2022-09-10T15:30:44.897Z,65.08
2022-09-10T15:33:16.431Z,64.98
2022-09-10T15:35:44.861Z,64.79
2022-09-10T15:38:17.672Z,64.94
2022-09-10T15:40:49.565Z,64.91
2022-09-10T15:43:20.233Z,65.03
2022-09-10T15:45:48.940Z,65.04
2022-09-10T15:48:17.097Z,65.10
2022-09-10T15:50:45.350Z,65.37
2022-09-10T15:53:14.085Z,65.48
2022-09-10T15:55:42.479Z,65.59
2022-09-10T15:58:10.827Z,65.66
2022-09-10T16:00:39.028Z,65.87
2022-09-10T16:03:07.166Z,65.83
2022-09-10T16:05:35.427Z,65.76
2022-09-10T16:08:03.672Z,65.64
2022-09-10T16:10:32.435Z,65.70
2022-09-10T16:13:00.501Z,65.90
2022-09-10T16:15:28.710Z,66.08
2022-09-10T16:17:58.227Z,66.05
2022-09-10T16:20:26.759Z,66.06
2022-09-10T16:22:55.409Z,66.31
2022-09-10T16:25:23.641Z,66.32
2022-09-10T16:27:51.849Z,66.39
2022-09-10T16:33:29.785Z,66.48
2022-09-10T16:37:51.341Z,66.54
2022-09-10T16:41:16.566Z,66.70
2022-09-10T16:51:37.088Z,66.85
2022-09-10T16:54:34.471Z,66.88
2022-09-10T17:08:42.581Z,67.69
2022-09-10T17:11:39.021Z,67.79
2022-09-10T17:14:27.647Z,67.74
2022-09-10T17:17:06.416Z,67.84
2022-09-10T17:19:36.547Z,68.05
2022-09-10T17:22:33.619Z,68.13
2022-09-10T17:25:11.893Z,68.16
2022-09-10T17:27:46.600Z,68.00
2022-09-10T17:37:20.277Z,68.28
2022-09-10T17:40:39.642Z,67.96
2022-09-10T17:43:11.168Z,68.07
2022-09-10T17:45:39.344Z,68.01
2022-09-10T17:48:36.220Z,68.50
2022-09-10T17:51:18.274Z,67.93
2022-09-10T17:53:46.948Z,67.86
2022-09-10T17:56:19.153Z,67.83
2022-09-10T17:58:48.616Z,68.03
2022-09-10T18:01:30.555Z,68.59
2022-09-10T18:04:15.900Z,68.93
2022-09-10T18:06:50.289Z,68.94
2022-09-10T18:09:25.953Z,68.69
2022-09-10T18:11:58.368Z,68.79
2022-09-10T18:14:27.870Z,68.96
2022-09-10T18:16:58.146Z,69.05
2022-09-10T18:19:42.182Z,69.22
2022-09-10T18:22:35.558Z,69.34
2022-09-10T18:29:00.233Z,68.62
2022-09-10T18:30:35.932Z,68.92
2022-09-10T18:31:52.468Z,68.63
2022-09-10T18:35:07.081Z,68.94
2022-09-10T18:47:41.371Z,69.99
2022-09-10T18:50:49.940Z,70.08
2022-09-10T18:53:27.983Z,69.90
2022-09-10T18:55:56.582Z,69.52
2022-09-10T19:18:37.275Z,70.57
2022-09-10T19:21:43.297Z,70.47
2022-09-10T19:24:16.837Z,70.62
2022-09-10T19:26:49.259Z,70.67
2022-09-10T19:29:19.243Z,70.70
2022-09-10T19:32:14.900Z,70.48
2022-09-10T19:53:55.750Z,71.39
2022-09-10T19:56:29.636Z,71.17
2022-09-10T19:58:58.594Z,71.32
2022-09-10T20:01:32.480Z,71.32
2022-09-10T20:04:02.234Z,71.33
2022-09-10T20:06:30.278Z,71.22
2022-09-10T20:08:59.072Z,71.09
2022-09-10T20:11:32.531Z,71.12
2022-09-10T20:14:13.315Z,71.20
2022-09-10T20:16:46.985Z,71.18
2022-09-10T20:19:22.252Z,71.08
2022-09-10T20:21:51.639Z,71.16
2022-09-10T20:24:20.016Z,71.24
2022-09-10T20:26:58.194Z,71.33
2022-09-10T20:29:28.566Z,71.40
2022-09-10T20:31:56.867Z,71.21
2022-09-10T20:34:25.600Z,71.28
2022-09-10T20:36:53.982Z,71.60
2022-09-10T20:39:25.450Z,71.53
2022-09-10T20:41:53.542Z,71.56
2022-09-10T20:44:23.188Z,71.41
2022-09-10T20:46:51.418Z,71.61
2022-09-10T20:49:19.506Z,71.62
2022-09-10T20:51:48.430Z,71.46
2022-09-10T20:54:19.099Z,71.63
2022-09-10T20:56:47.381Z,71.71
2022-09-10T20:59:17.059Z,71.88
2022-09-10T21:01:46.546Z,71.72
2022-09-10T21:04:14.938Z,71.57
2022-09-10T21:06:43.462Z,71.62
2022-09-10T21:09:12.897Z,71.74
2022-09-10T21:11:41.259Z,71.43
2022-09-10T21:14:11.600Z,71.34
2022-09-10T21:16:42.407Z,71.36
2022-09-10T21:19:13.046Z,71.60
2022-09-10T21:21:42.546Z,71.42
2022-09-10T21:24:16.035Z,71.32
2022-09-10T21:26:44.601Z,71.19
2022-09-10T21:29:18.362Z,71.38
2022-09-10T21:31:47.734Z,71.43
2022-09-10T21:34:17.513Z,71.50
2022-09-10T21:36:45.898Z,71.60
2022-09-10T21:39:16.135Z,71.74
2022-09-10T21:41:49.255Z,71.61
2022-09-10T21:44:23.129Z,71.52
2022-09-10T21:46:52.350Z,71.86
2022-09-10T21:49:21.105Z,71.72
2022-09-10T21:51:49.677Z,71.83
2022-09-10T21:54:20.987Z,71.46
2022-09-10T21:56:50.685Z,71.57
2022-09-10T21:59:21.551Z,71.47
2022-09-10T22:01:50.124Z,71.47
2022-09-10T22:04:22.720Z,71.46
2022-09-10T22:06:52.101Z,71.78
2022-09-10T22:09:21.354Z,71.68
2022-09-10T22:11:52.099Z,71.80
2022-09-10T22:14:25.008Z,71.87
2022-09-10T22:16:54.013Z,71.59
2022-09-10T22:19:24.569Z,71.51
2022-09-10T22:21:56.983Z,71.78
2022-09-10T22:24:26.323Z,71.89
2022-09-10T22:26:54.663Z,71.83
2022-09-10T22:29:23.002Z,71.86
2022-09-10T22:31:51.225Z,71.75
2022-09-10T22:34:19.764Z,71.73
2022-09-10T22:36:49.826Z,71.83
2022-09-10T22:39:22.346Z,71.73
2022-09-10T22:41:51.567Z,71.78
2022-09-10T22:44:20.189Z,71.97
2022-09-10T22:46:48.711Z,71.92
2022-09-10T22:49:18.130Z,72.26
2022-09-10T22:51:46.403Z,72.16
2022-09-10T22:54:15.050Z,72.20
2022-09-10T22:56:44.688Z,72.32
2022-09-10T22:59:15.491Z,72.34
2022-09-10T23:01:47.667Z,72.43
2022-09-10T23:04:16.648Z,72.36
2022-09-10T23:06:44.761Z,72.27
2022-09-10T23:09:15.921Z,72.07
2022-09-10T23:11:45.324Z,72.21
2022-09-10T23:14:20.920Z,72.31
2022-09-10T23:16:51.863Z,72.42
2022-09-10T23:19:23.439Z,72.40
2022-09-10T23:21:54.076Z,72.34
2022-09-10T23:24:24.521Z,72.32
2022-09-10T23:26:53.991Z,72.23
2022-09-10T23:29:24.283Z,72.45
2022-09-10T23:31:55.912Z,72.46
2022-09-10T23:34:24.034Z,72.41
2022-09-10T23:36:53.512Z,72.60
2022-09-10T23:39:24.013Z,72.50
2022-09-10T23:41:55.586Z,72.44
2022-09-10T23:44:24.428Z,72.55
2022-09-10T23:46:53.774Z,72.41
2022-09-10T23:49:24.073Z,72.57
2022-09-10T23:51:52.631Z,72.53
2022-09-10T23:54:20.955Z,72.74
2022-09-10T23:56:49.088Z,72.66
2022-09-10T23:59:19.544Z,72.74
